Joplin Regional Airport
KJLN : now visible

Airfield :











YOU CAN JOIN US ON...

 
LOGIN :

Register | Disclaimer

   EN    FR    IT 

 









Legend :    VFR   Marginal VFR   IFR   Intensive IFR   Very Intensive IFR
Visi :
Ceiling :
>= 8 km
>= 3000ft
5 to 8 km
1000 to 3000 ft
1500m to 5 km
500 to 1000 ft
800 to 1500m
200 to 500 ft
< 800m
< 200 ft
Symbols :   Thunderstorms  Fog  Heavy snow  Heavy precipitations  Wind > 20 kt






- Airport Elevation : 981 ft
- IATA code : JLN


KJLN - Joplin Regional

CURRENT METAR :
  • 201436Z 30013G17KT 10SM FEW075 FEW090 SCT110 23/16 A2984 RMK AO2 PRESRR T02330156

EXPIRED METARs :
  • 201421Z 18009KT 10SM VCTS FEW075 SCT100 BKN110 22/16 A2981 RMK AO2 LTG DSNT S T02170161
  • 201353Z 24003KT 10SM FEW100 SCT110 22/17 A2982 RMK AO2 LTG DSNT S-NW SLP087 T02220167
  • 201253Z 16010KT 10SM CLR 21/15 A2980 RMK AO2 LTG DSNT SW SLP081 T02060150
  • 201153Z 16012KT 10SM CLR 18/15 A2985 RMK AO2 RAE11 SLP097 P0000 60021 70021 T01830150 10200 20178 58038
  • 201116Z 17007KT 10SM FEW055 FEW120 18/16 A2988 RMK AO2 LTG DSNT E AND SE RAE11 P0000 T01780156
  • 201053Z 18008KT 10SM VCTS -RA BKN110 18/16 A2992 RMK AO2 LTG DSNT NE-S TSB28E43 SLP120 P0013 T01780161
  • 201028Z AUTO 16009KT 8SM -TSRA BKN090 OVC110 18/16 A2992 RMK AO2 LTG DSNT ALQDS TSB28 PRESFR P0011 T01780161
  • 201005Z AUTO 23011KT 5SM VCTS RA BR OVC100 18/16 A2996 RMK AO2 LTG DSNT ALQDS P0004 T01830161

TAF KJLN
Valid from the 20 at 12:00 until the 21 at 12:00 UTC


201120Z 2012/2112 16009KT P6SM -TSRA VCTS BKN090CB OVC110
FM201400 20014KT P6SM SCT130
FM201500 19014G23KT P6SM FEW150
FM202300 18011G19KT P6SM SKC
KZKC FIR / North America



MET'MAP, your aeronautical weather chart ! - Copyright ORBIFLY December 2007 - Disclaimer

ORBIFLY MET'MAP TEAM :

Programming & Development : Alexandra Zaïnal
Original concept : Baudouin d'Aumeries
Technical & hardware support : Manuel Goepfert
Assistance : Marc-Olivier Méhu




SOURCES & CREDITS :

   NOAA       Earth
Advisory